sensor_id;sensor_type;location;lat;lon;timestamp;P1;durP1;ratioP1;P2;durP2;ratioP2
46355;SDS011;32066;49.474;11.106;2023-04-26T00:00:08;9.35;;;3.63;;
46355;SDS011;32066;49.474;11.106;2023-04-26T00:02:38;10.10;;;3.85;;
46355;SDS011;32066;49.474;11.106;2023-04-26T00:05:07;8.35;;;3.30;;
46355;SDS011;32066;49.474;11.106;2023-04-26T00:07:36;9.02;;;3.95;;
46355;SDS011;32066;49.474;11.106;2023-04-26T00:10:05;10.38;;;3.33;;
46355;SDS011;32066;49.474;11.106;2023-04-26T00:12:37;11.15;;;3.70;;
46355;SDS011;32066;49.474;11.106;2023-04-26T00:15:06;9.57;;;4.25;;
46355;SDS011;32066;49.474;11.106;2023-04-26T00:17:36;8.73;;;3.55;;
46355;SDS011;32066;49.474;11.106;2023-04-26T00:20:05;10.27;;;3.97;;
46355;SDS011;32066;49.474;11.106;2023-04-26T00:22:37;7.90;;;3.10;;
46355;SDS011;32066;49.474;11.106;2023-04-26T00:25:05;11.25;;;4.45;;
46355;SDS011;32066;49.474;11.106;2023-04-26T00:27:37;7.07;;;3.60;;
46355;SDS011;32066;49.474;11.106;2023-04-26T00:30:07;8.05;;;3.20;;
46355;SDS011;32066;49.474;11.106;2023-04-26T00:32:36;11.27;;;3.83;;
46355;SDS011;32066;49.474;11.106;2023-04-26T00:35:06;13.30;;;5.07;;
46355;SDS011;32066;49.474;11.106;2023-04-26T00:37:35;10.20;;;3.83;;
46355;SDS011;32066;49.474;11.106;2023-04-26T00:40:05;7.65;;;3.22;;
46355;SDS011;32066;49.474;11.106;2023-04-26T00:42:34;7.03;;;3.53;;
46355;SDS011;32066;49.474;11.106;2023-04-26T00:45:07;9.20;;;3.38;;
46355;SDS011;32066;49.474;11.106;2023-04-26T00:47:35;9.27;;;3.30;;
46355;SDS011;32066;49.474;11.106;2023-04-26T00:50:05;7.95;;;3.35;;
46355;SDS011;32066;49.474;11.106;2023-04-26T00:52:35;8.52;;;3.53;;
46355;SDS011;32066;49.474;11.106;2023-04-26T00:55:05;7.97;;;3.85;;
46355;SDS011;32066;49.474;11.106;2023-04-26T00:57:35;9.60;;;3.90;;
46355;SDS011;32066;49.474;11.106;2023-04-26T01:00:07;9.45;;;3.80;;
46355;SDS011;32066;49.474;11.106;2023-04-26T01:02:36;8.45;;;3.88;;
46355;SDS011;32066;49.474;11.106;2023-04-26T01:05:05;7.28;;;3.78;;
46355;SDS011;32066;49.474;11.106;2023-04-26T01:07:35;8.80;;;3.67;;
46355;SDS011;32066;49.474;11.106;2023-04-26T01:10:05;8.10;;;3.60;;
46355;SDS011;32066;49.474;11.106;2023-04-26T01:12:37;7.88;;;3.47;;
46355;SDS011;32066;49.474;11.106;2023-04-26T01:15:07;12.10;;;3.40;;
46355;SDS011;32066;49.474;11.106;2023-04-26T01:17:37;14.50;;;5.22;;
46355;SDS011;32066;49.474;11.106;2023-04-26T01:20:08;7.70;;;3.95;;
46355;SDS011;32066;49.474;11.106;2023-04-26T01:22:40;8.68;;;3.72;;
46355;SDS011;32066;49.474;11.106;2023-04-26T01:25:10;6.60;;;3.50;;
46355;SDS011;32066;49.474;11.106;2023-04-26T01:27:40;8.57;;;3.95;;
46355;SDS011;32066;49.474;11.106;2023-04-26T01:30:09;11.07;;;4.25;;
46355;SDS011;32066;49.474;11.106;2023-04-26T01:32:38;9.02;;;3.80;;
46355;SDS011;32066;49.474;11.106;2023-04-26T01:35:07;8.63;;;3.90;;
46355;SDS011;32066;49.474;11.106;2023-04-26T01:37:36;11.65;;;3.85;;
46355;SDS011;32066;49.474;11.106;2023-04-26T01:40:08;9.80;;;4.00;;
46355;SDS011;32066;49.474;11.106;2023-04-26T01:42:37;9.20;;;4.10;;
46355;SDS011;32066;49.474;11.106;2023-04-26T01:45:06;9.00;;;3.83;;
46355;SDS011;32066;49.474;11.106;2023-04-26T01:47:54;10.02;;;3.65;;
46355;SDS011;32066;49.474;11.106;2023-04-26T01:50:23;9.07;;;4.50;;
46355;SDS011;32066;49.474;11.106;2023-04-26T01:52:51;8.40;;;3.80;;
46355;SDS011;32066;49.474;11.106;2023-04-26T01:55:23;9.02;;;3.80;;
46355;SDS011;32066;49.474;11.106;2023-04-26T01:57:51;9.00;;;3.45;;
46355;SDS011;32066;49.474;11.106;2023-04-26T02:00:20;9.65;;;4.13;;
46355;SDS011;32066;49.474;11.106;2023-04-26T02:02:49;8.90;;;4.45;;
46355;SDS011;32066;49.474;11.106;2023-04-26T02:05:22;8.23;;;3.72;;
46355;SDS011;32066;49.474;11.106;2023-04-26T02:07:50;8.80;;;3.80;;
46355;SDS011;32066;49.474;11.106;2023-04-26T02:10:19;7.75;;;3.28;;
46355;SDS011;32066;49.474;11.106;2023-04-26T02:12:51;8.15;;;3.72;;
46355;SDS011;32066;49.474;11.106;2023-04-26T02:15:20;8.23;;;3.45;;
46355;SDS011;32066;49.474;11.106;2023-04-26T02:17:48;7.75;;;3.67;;
46355;SDS011;32066;49.474;11.106;2023-04-26T02:20:19;7.95;;;4.10;;
46355;SDS011;32066;49.474;11.106;2023-04-26T02:22:47;9.68;;;4.00;;
46355;SDS011;32066;49.474;11.106;2023-04-26T02:25:16;7.10;;;3.85;;
46355;SDS011;32066;49.474;11.106;2023-04-26T02:27:45;7.13;;;3.40;;
46355;SDS011;32066;49.474;11.106;2023-04-26T02:30:17;9.38;;;4.50;;
46355;SDS011;32066;49.474;11.106;2023-04-26T02:32:46;7.97;;;3.80;;
46355;SDS011;32066;49.474;11.106;2023-04-26T02:35:16;9.45;;;3.90;;
46355;SDS011;32066;49.474;11.106;2023-04-26T02:37:45;9.35;;;3.72;;
46355;SDS011;32066;49.474;11.106;2023-04-26T02:40:17;8.20;;;3.53;;
46355;SDS011;32066;49.474;11.106;2023-04-26T02:42:46;12.20;;;4.00;;
46355;SDS011;32066;49.474;11.106;2023-04-26T02:45:18;7.95;;;3.90;;
46355;SDS011;32066;49.474;11.106;2023-04-26T02:47:47;8.13;;;3.78;;
46355;SDS011;32066;49.474;11.106;2023-04-26T02:50:15;10.10;;;3.90;;
46355;SDS011;32066;49.474;11.106;2023-04-26T02:52:44;7.63;;;3.95;;
46355;SDS011;32066;49.474;11.106;2023-04-26T02:55:13;8.07;;;3.53;;
46355;SDS011;32066;49.474;11.106;2023-04-26T02:57:42;12.00;;;4.45;;
46355;SDS011;32066;49.474;11.106;2023-04-26T03:00:12;9.95;;;3.55;;
46355;SDS011;32066;49.474;11.106;2023-04-26T03:02:43;11.40;;;3.83;;
46355;SDS011;32066;49.474;11.106;2023-04-26T03:05:12;7.43;;;3.50;;
46355;SDS011;32066;49.474;11.106;2023-04-26T03:07:41;8.75;;;3.95;;
46355;SDS011;32066;49.474;11.106;2023-04-26T03:10:10;10.98;;;3.88;;
46355;SDS011;32066;49.474;11.106;2023-04-26T03:12:39;8.70;;;4.20;;
46355;SDS011;32066;49.474;11.106;2023-04-26T03:15:08;12.55;;;3.83;;
46355;SDS011;32066;49.474;11.106;2023-04-26T03:17:39;10.32;;;4.32;;
46355;SDS011;32066;49.474;11.106;2023-04-26T03:20:11;9.27;;;4.10;;
46355;SDS011;32066;49.474;11.106;2023-04-26T03:22:40;9.18;;;4.03;;
46355;SDS011;32066;49.474;11.106;2023-04-26T03:25:09;8.30;;;3.97;;
46355;SDS011;32066;49.474;11.106;2023-04-26T03:27:39;9.30;;;4.30;;
46355;SDS011;32066;49.474;11.106;2023-04-26T03:30:08;10.88;;;4.32;;
46355;SDS011;32066;49.474;11.106;2023-04-26T03:32:38;9.40;;;4.72;;
46355;SDS011;32066;49.474;11.106;2023-04-26T03:35:10;8.77;;;4.28;;
46355;SDS011;32066;49.474;11.106;2023-04-26T03:37:38;12.20;;;4.13;;
46355;SDS011;32066;49.474;11.106;2023-04-26T03:40:11;11.32;;;5.30;;
46355;SDS011;32066;49.474;11.106;2023-04-26T03:42:41;8.52;;;4.30;;
46355;SDS011;32066;49.474;11.106;2023-04-26T03:45:10;9.02;;;4.07;;
46355;SDS011;32066;49.474;11.106;2023-04-26T03:47:38;11.05;;;4.40;;
46355;SDS011;32066;49.474;11.106;2023-04-26T03:50:10;8.50;;;4.63;;
46355;SDS011;32066;49.474;11.106;2023-04-26T03:52:39;9.23;;;4.47;;
46355;SDS011;32066;49.474;11.106;2023-04-26T03:55:08;9.10;;;4.60;;
46355;SDS011;32066;49.474;11.106;2023-04-26T03:57:37;8.65;;;4.05;;
46355;SDS011;32066;49.474;11.106;2023-04-26T04:00:06;10.32;;;4.32;;
46355;SDS011;32066;49.474;11.106;2023-04-26T04:02:40;13.35;;;4.78;;
46355;SDS011;32066;49.474;11.106;2023-04-26T04:05:17;8.30;;;4.55;;
46355;SDS011;32066;49.474;11.106;2023-04-26T04:07:46;11.75;;;4.47;;
46355;SDS011;32066;49.474;11.106;2023-04-26T04:10:14;10.88;;;4.72;;
46355;SDS011;32066;49.474;11.106;2023-04-26T04:12:44;9.85;;;4.35;;
46355;SDS011;32066;49.474;11.106;2023-04-26T04:15:13;9.32;;;4.63;;
46355;SDS011;32066;49.474;11.106;2023-04-26T04:17:45;9.23;;;4.45;;
46355;SDS011;32066;49.474;11.106;2023-04-26T04:20:13;10.18;;;4.60;;
46355;SDS011;32066;49.474;11.106;2023-04-26T04:22:46;10.52;;;5.15;;
46355;SDS011;32066;49.474;11.106;2023-04-26T04:25:15;10.55;;;4.85;;
46355;SDS011;32066;49.474;11.106;2023-04-26T04:27:45;9.73;;;4.68;;
46355;SDS011;32066;49.474;11.106;2023-04-26T04:30:16;10.23;;;5.15;;
46355;SDS011;32066;49.474;11.106;2023-04-26T04:32:44;8.90;;;4.28;;
46355;SDS011;32066;49.474;11.106;2023-04-26T04:35:17;11.45;;;5.18;;
46355;SDS011;32066;49.474;11.106;2023-04-26T04:37:47;10.05;;;5.00;;
46355;SDS011;32066;49.474;11.106;2023-04-26T04:40:16;10.40;;;4.50;;
46355;SDS011;32066;49.474;11.106;2023-04-26T04:42:46;9.27;;;3.70;;
46355;SDS011;32066;49.474;11.106;2023-04-26T04:45:16;10.70;;;5.13;;
46355;SDS011;32066;49.474;11.106;2023-04-26T04:47:46;11.50;;;5.80;;
46355;SDS011;32066;49.474;11.106;2023-04-26T04:50:17;9.57;;;5.30;;
46355;SDS011;32066;49.474;11.106;2023-04-26T04:52:47;13.18;;;5.57;;
46355;SDS011;32066;49.474;11.106;2023-04-26T04:55:16;12.43;;;5.53;;
46355;SDS011;32066;49.474;11.106;2023-04-26T04:57:45;11.60;;;6.50;;
46355;SDS011;32066;49.474;11.106;2023-04-26T05:00:15;10.07;;;5.40;;
46355;SDS011;32066;49.474;11.106;2023-04-26T05:02:57;11.50;;;5.75;;
46355;SDS011;32066;49.474;11.106;2023-04-26T05:05:29;10.00;;;5.53;;
46355;SDS011;32066;49.474;11.106;2023-04-26T05:07:58;12.95;;;6.03;;
46355;SDS011;32066;49.474;11.106;2023-04-26T05:10:27;13.20;;;5.93;;
46355;SDS011;32066;49.474;11.106;2023-04-26T05:12:56;11.00;;;5.85;;
46355;SDS011;32066;49.474;11.106;2023-04-26T05:15:25;16.40;;;6.28;;
46355;SDS011;32066;49.474;11.106;2023-04-26T05:17:54;13.05;;;6.30;;
46355;SDS011;32066;49.474;11.106;2023-04-26T05:20:24;13.00;;;6.03;;
46355;SDS011;32066;49.474;11.106;2023-04-26T05:22:56;10.57;;;6.00;;
46355;SDS011;32066;49.474;11.106;2023-04-26T05:25:25;13.25;;;6.78;;
46355;SDS011;32066;49.474;11.106;2023-04-26T05:30:38;13.80;;;6.93;;
46355;SDS011;32066;49.474;11.106;2023-04-26T05:33:25;11.32;;;6.30;;
46355;SDS011;32066;49.474;11.106;2023-04-26T05:36:08;14.18;;;7.00;;
46355;SDS011;32066;49.474;11.106;2023-04-26T05:38:39;10.50;;;6.43;;
46355;SDS011;32066;49.474;11.106;2023-04-26T05:41:08;11.32;;;6.05;;
46355;SDS011;32066;49.474;11.106;2023-04-26T05:43:37;10.30;;;5.60;;
46355;SDS011;32066;49.474;11.106;2023-04-26T05:46:06;10.23;;;5.78;;
46355;SDS011;32066;49.474;11.106;2023-04-26T05:48:34;8.82;;;4.95;;
46355;SDS011;32066;49.474;11.106;2023-04-26T05:51:05;13.05;;;5.43;;
46355;SDS011;32066;49.474;11.106;2023-04-26T05:53:33;12.05;;;5.45;;
46355;SDS011;32066;49.474;11.106;2023-04-26T05:56:05;10.95;;;5.80;;
46355;SDS011;32066;49.474;11.106;2023-04-26T05:58:34;12.35;;;5.20;;
46355;SDS011;32066;49.474;11.106;2023-04-26T06:01:03;11.63;;;5.15;;
46355;SDS011;32066;49.474;11.106;2023-04-26T06:03:33;10.80;;;4.68;;
46355;SDS011;32066;49.474;11.106;2023-04-26T06:06:02;9.82;;;5.03;;
46355;SDS011;32066;49.474;11.106;2023-04-26T06:08:32;11.68;;;5.15;;
46355;SDS011;32066;49.474;11.106;2023-04-26T06:11:00;8.82;;;4.90;;
46355;SDS011;32066;49.474;11.106;2023-04-26T06:13:32;10.20;;;4.68;;
46355;SDS011;32066;49.474;11.106;2023-04-26T06:16:00;11.98;;;4.20;;
46355;SDS011;32066;49.474;11.106;2023-04-26T06:18:29;10.27;;;4.53;;
46355;SDS011;32066;49.474;11.106;2023-04-26T06:20:57;8.90;;;4.47;;
46355;SDS011;32066;49.474;11.106;2023-04-26T06:23:26;9.70;;;4.25;;
46355;SDS011;32066;49.474;11.106;2023-04-26T06:25:55;8.30;;;4.00;;
46355;SDS011;32066;49.474;11.106;2023-04-26T06:28:24;10.50;;;3.90;;
46355;SDS011;32066;49.474;11.106;2023-04-26T06:30:55;9.80;;;4.10;;
46355;SDS011;32066;49.474;11.106;2023-04-26T06:33:24;9.98;;;3.58;;
46355;SDS011;32066;49.474;11.106;2023-04-26T06:35:53;10.07;;;4.05;;
46355;SDS011;32066;49.474;11.106;2023-04-26T06:38:22;10.60;;;3.85;;
46355;SDS011;32066;49.474;11.106;2023-04-26T06:40:51;8.70;;;3.75;;
46355;SDS011;32066;49.474;11.106;2023-04-26T06:43:20;7.40;;;3.83;;
46355;SDS011;32066;49.474;11.106;2023-04-26T06:46:03;8.25;;;3.65;;
46355;SDS011;32066;49.474;11.106;2023-04-26T06:48:32;8.20;;;3.40;;
46355;SDS011;32066;49.474;11.106;2023-04-26T06:51:03;10.00;;;4.85;;
46355;SDS011;32066;49.474;11.106;2023-04-26T06:53:33;8.50;;;4.20;;
46355;SDS011;32066;49.474;11.106;2023-04-26T06:56:01;8.15;;;3.80;;
46355;SDS011;32066;49.474;11.106;2023-04-26T06:58:30;8.82;;;4.07;;
46355;SDS011;32066;49.474;11.106;2023-04-26T07:00:59;9.13;;;4.18;;
46355;SDS011;32066;49.474;11.106;2023-04-26T07:03:30;7.97;;;3.60;;
46355;SDS011;32066;49.474;11.106;2023-04-26T07:05:59;6.85;;;3.05;;
46355;SDS011;32066;49.474;11.106;2023-04-26T07:08:28;9.43;;;3.25;;
46355;SDS011;32066;49.474;11.106;2023-04-26T07:10:57;8.43;;;3.45;;
46355;SDS011;32066;49.474;11.106;2023-04-26T07:13:25;10.02;;;2.70;;
46355;SDS011;32066;49.474;11.106;2023-04-26T07:15:54;9.57;;;2.97;;
46355;SDS011;32066;49.474;11.106;2023-04-26T07:18:23;8.32;;;2.80;;
46355;SDS011;32066;49.474;11.106;2023-04-26T07:20:55;8.10;;;3.17;;
46355;SDS011;32066;49.474;11.106;2023-04-26T07:23:23;7.13;;;2.60;;
46355;SDS011;32066;49.474;11.106;2023-04-26T07:25:52;7.88;;;2.63;;
46355;SDS011;32066;49.474;11.106;2023-04-26T07:28:21;7.45;;;2.67;;
46355;SDS011;32066;49.474;11.106;2023-04-26T07:30:49;7.15;;;2.80;;
46355;SDS011;32066;49.474;11.106;2023-04-26T07:33:18;6.90;;;2.40;;
46355;SDS011;32066;49.474;11.106;2023-04-26T07:35:52;6.78;;;2.60;;
46355;SDS011;32066;49.474;11.106;2023-04-26T07:38:24;9.90;;;2.55;;
46355;SDS011;32066;49.474;11.106;2023-04-26T07:40:52;7.78;;;2.47;;
46355;SDS011;32066;49.474;11.106;2023-04-26T07:43:22;6.82;;;2.40;;
46355;SDS011;32066;49.474;11.106;2023-04-26T07:45:51;10.13;;;2.45;;
46355;SDS011;32066;49.474;11.106;2023-04-26T07:48:20;8.18;;;2.65;;
46355;SDS011;32066;49.474;11.106;2023-04-26T07:50:48;8.05;;;2.50;;
46355;SDS011;32066;49.474;11.106;2023-04-26T07:53:19;5.63;;;2.10;;
46355;SDS011;32066;49.474;11.106;2023-04-26T07:55:49;7.13;;;2.05;;
46355;SDS011;32066;49.474;11.106;2023-04-26T07:58:18;7.63;;;2.25;;
46355;SDS011;32066;49.474;11.106;2023-04-26T08:00:46;5.80;;;1.88;;
46355;SDS011;32066;49.474;11.106;2023-04-26T08:03:15;5.82;;;1.88;;
46355;SDS011;32066;49.474;11.106;2023-04-26T08:05:45;7.35;;;2.45;;
46355;SDS011;32066;49.474;11.106;2023-04-26T08:08:13;7.40;;;1.90;;
46355;SDS011;32066;49.474;11.106;2023-04-26T08:10:44;6.80;;;1.98;;
46355;SDS011;32066;49.474;11.106;2023-04-26T08:13:13;7.35;;;1.98;;
46355;SDS011;32066;49.474;11.106;2023-04-26T08:15:42;7.78;;;1.98;;
46355;SDS011;32066;49.474;11.106;2023-04-26T08:18:10;8.05;;;2.17;;
46355;SDS011;32066;49.474;11.106;2023-04-26T08:20:39;7.00;;;1.85;;
46355;SDS011;32066;49.474;11.106;2023-04-26T08:23:08;6.95;;;1.90;;
46355;SDS011;32066;49.474;11.106;2023-04-26T08:25:37;6.28;;;2.53;;
46355;SDS011;32066;49.474;11.106;2023-04-26T08:28:08;7.28;;;2.22;;
46355;SDS011;32066;49.474;11.106;2023-04-26T08:30:38;9.18;;;2.15;;
46355;SDS011;32066;49.474;11.106;2023-04-26T08:33:07;5.75;;;2.00;;
46355;SDS011;32066;49.474;11.106;2023-04-26T08:35:36;8.98;;;2.33;;
46355;SDS011;32066;49.474;11.106;2023-04-26T08:38:05;8.18;;;2.38;;
46355;SDS011;32066;49.474;11.106;2023-04-26T08:40:34;7.20;;;1.90;;
46355;SDS011;32066;49.474;11.106;2023-04-26T08:43:03;4.78;;;1.88;;
46355;SDS011;32066;49.474;11.106;2023-04-26T08:45:35;6.88;;;2.08;;
46355;SDS011;32066;49.474;11.106;2023-04-26T08:48:05;5.60;;;2.00;;
46355;SDS011;32066;49.474;11.106;2023-04-26T08:50:40;6.50;;;2.10;;
46355;SDS011;32066;49.474;11.106;2023-04-26T08:53:12;8.10;;;1.95;;
46355;SDS011;32066;49.474;11.106;2023-04-26T08:55:45;6.65;;;2.38;;
46355;SDS011;32066;49.474;11.106;2023-04-26T08:58:15;5.35;;;2.08;;
46355;SDS011;32066;49.474;11.106;2023-04-26T09:00:48;5.18;;;1.98;;
46355;SDS011;32066;49.474;11.106;2023-04-26T09:03:18;6.70;;;2.15;;
46355;SDS011;32066;49.474;11.106;2023-04-26T09:05:46;7.18;;;2.03;;
46355;SDS011;32066;49.474;11.106;2023-04-26T09:08:15;5.32;;;1.70;;
46355;SDS011;32066;49.474;11.106;2023-04-26T09:10:44;8.90;;;2.70;;
46355;SDS011;32066;49.474;11.106;2023-04-26T09:13:13;7.63;;;1.98;;
46355;SDS011;32066;49.474;11.106;2023-04-26T09:15:41;7.00;;;1.98;;
46355;SDS011;32066;49.474;11.106;2023-04-26T09:18:20;6.22;;;1.95;;
46355;SDS011;32066;49.474;11.106;2023-04-26T09:21:00;7.32;;;2.10;;
46355;SDS011;32066;49.474;11.106;2023-04-26T09:23:31;6.15;;;1.95;;
46355;SDS011;32066;49.474;11.106;2023-04-26T09:26:15;6.18;;;1.73;;
46355;SDS011;32066;49.474;11.106;2023-04-26T09:28:45;5.03;;;1.63;;
46355;SDS011;32066;49.474;11.106;2023-04-26T09:31:34;7.03;;;2.22;;
46355;SDS011;32066;49.474;11.106;2023-04-26T09:34:08;6.40;;;2.42;;
46355;SDS011;32066;49.474;11.106;2023-04-26T09:36:47;6.05;;;1.75;;
46355;SDS011;32066;49.474;11.106;2023-04-26T09:39:29;6.03;;;1.80;;
46355;SDS011;32066;49.474;11.106;2023-04-26T09:41:59;5.63;;;1.70;;
46355;SDS011;32066;49.474;11.106;2023-04-26T09:44:28;5.03;;;1.67;;
46355;SDS011;32066;49.474;11.106;2023-04-26T09:46:58;5.43;;;2.00;;
46355;SDS011;32066;49.474;11.106;2023-04-26T09:49:30;6.25;;;2.15;;
46355;SDS011;32066;49.474;11.106;2023-04-26T09:52:00;9.35;;;1.90;;
46355;SDS011;32066;49.474;11.106;2023-04-26T09:54:37;6.32;;;2.00;;
46355;SDS011;32066;49.474;11.106;2023-04-26T09:57:07;9.55;;;2.45;;
46355;SDS011;32066;49.474;11.106;2023-04-26T09:59:42;6.57;;;2.40;;
46355;SDS011;32066;49.474;11.106;2023-04-26T10:04:47;6.55;;;1.83;;
46355;SDS011;32066;49.474;11.106;2023-04-26T10:07:18;5.72;;;2.03;;
46355;SDS011;32066;49.474;11.106;2023-04-26T10:09:47;6.75;;;1.67;;
46355;SDS011;32066;49.474;11.106;2023-04-26T10:12:17;6.65;;;1.63;;
46355;SDS011;32066;49.474;11.106;2023-04-26T10:14:47;6.07;;;1.63;;
46355;SDS011;32066;49.474;11.106;2023-04-26T10:17:15;4.93;;;1.77;;
46355;SDS011;32066;49.474;11.106;2023-04-26T10:19:49;5.65;;;2.10;;
46355;SDS011;32066;49.474;11.106;2023-04-26T10:22:22;7.10;;;1.95;;
46355;SDS011;32066;49.474;11.106;2023-04-26T10:24:53;9.13;;;2.22;;
46355;SDS011;32066;49.474;11.106;2023-04-26T10:30:17;7.78;;;2.28;;
46355;SDS011;32066;49.474;11.106;2023-04-26T10:38:41;7.40;;;2.10;;
46355;SDS011;32066;49.474;11.106;2023-04-26T10:41:45;5.00;;;2.13;;
46355;SDS011;32066;49.474;11.106;2023-04-26T10:47:19;8.02;;;2.47;;
46355;SDS011;32066;49.474;11.106;2023-04-26T10:50:05;6.15;;;2.10;;
46355;SDS011;32066;49.474;11.106;2023-04-26T10:53:03;9.63;;;2.05;;
46355;SDS011;32066;49.474;11.106;2023-04-26T10:55:38;7.30;;;2.60;;
46355;SDS011;32066;49.474;11.106;2023-04-26T11:03:31;5.47;;;2.30;;
46355;SDS011;32066;49.474;11.106;2023-04-26T11:05:59;5.15;;;2.00;;
46355;SDS011;32066;49.474;11.106;2023-04-26T11:08:36;8.43;;;2.17;;
46355;SDS011;32066;49.474;11.106;2023-04-26T11:11:05;7.15;;;1.95;;
46355;SDS011;32066;49.474;11.106;2023-04-26T11:13:38;6.88;;;2.58;;
46355;SDS011;32066;49.474;11.106;2023-04-26T11:16:08;5.93;;;2.00;;
46355;SDS011;32066;49.474;11.106;2023-04-26T11:18:38;9.05;;;2.50;;
46355;SDS011;32066;49.474;11.106;2023-04-26T11:21:09;5.88;;;2.30;;
46355;SDS011;32066;49.474;11.106;2023-04-26T11:23:44;8.20;;;2.22;;
46355;SDS011;32066;49.474;11.106;2023-04-26T11:26:20;6.47;;;2.22;;
46355;SDS011;32066;49.474;11.106;2023-04-26T11:28:49;6.43;;;2.40;;
46355;SDS011;32066;49.474;11.106;2023-04-26T11:31:18;4.68;;;1.75;;
46355;SDS011;32066;49.474;11.106;2023-04-26T11:33:46;7.85;;;2.60;;
46355;SDS011;32066;49.474;11.106;2023-04-26T11:36:15;8.10;;;2.10;;
46355;SDS011;32066;49.474;11.106;2023-04-26T11:38:47;4.93;;;1.75;;
46355;SDS011;32066;49.474;11.106;2023-04-26T11:41:16;7.75;;;2.17;;
46355;SDS011;32066;49.474;11.106;2023-04-26T11:43:45;5.47;;;2.10;;
46355;SDS011;32066;49.474;11.106;2023-04-26T11:46:13;6.75;;;2.17;;
46355;SDS011;32066;49.474;11.106;2023-04-26T11:48:42;4.93;;;2.00;;
46355;SDS011;32066;49.474;11.106;2023-04-26T11:51:11;5.40;;;2.00;;
46355;SDS011;32066;49.474;11.106;2023-04-26T11:53:40;4.85;;;1.90;;
46355;SDS011;32066;49.474;11.106;2023-04-26T11:56:15;5.65;;;2.35;;
46355;SDS011;32066;49.474;11.106;2023-04-26T11:58:46;5.45;;;2.20;;
46355;SDS011;32066;49.474;11.106;2023-04-26T12:01:19;6.10;;;2.17;;
46355;SDS011;32066;49.474;11.106;2023-04-26T12:03:49;8.52;;;2.30;;
46355;SDS011;32066;49.474;11.106;2023-04-26T12:06:19;5.90;;;2.03;;
46355;SDS011;32066;49.474;11.106;2023-04-26T12:08:48;6.43;;;2.05;;
46355;SDS011;32066;49.474;11.106;2023-04-26T12:11:20;5.53;;;2.10;;
46355;SDS011;32066;49.474;11.106;2023-04-26T12:13:48;6.00;;;2.20;;
46355;SDS011;32066;49.474;11.106;2023-04-26T12:16:17;5.25;;;1.90;;
46355;SDS011;32066;49.474;11.106;2023-04-26T12:18:48;7.97;;;2.75;;
46355;SDS011;32066;49.474;11.106;2023-04-26T12:21:18;5.10;;;2.35;;
46355;SDS011;32066;49.474;11.106;2023-04-26T12:23:47;6.43;;;2.00;;
46355;SDS011;32066;49.474;11.106;2023-04-26T12:26:16;6.93;;;2.28;;
46355;SDS011;32066;49.474;11.106;2023-04-26T12:28:47;8.20;;;2.35;;
46355;SDS011;32066;49.474;11.106;2023-04-26T12:31:15;7.32;;;2.33;;
46355;SDS011;32066;49.474;11.106;2023-04-26T12:33:44;7.13;;;2.20;;
46355;SDS011;32066;49.474;11.106;2023-04-26T12:36:13;6.38;;;2.10;;
46355;SDS011;32066;49.474;11.106;2023-04-26T12:38:43;6.28;;;2.20;;
46355;SDS011;32066;49.474;11.106;2023-04-26T12:41:12;6.53;;;2.05;;
46355;SDS011;32066;49.474;11.106;2023-04-26T12:43:41;7.07;;;2.50;;
46355;SDS011;32066;49.474;11.106;2023-04-26T12:46:12;7.00;;;2.20;;
46355;SDS011;32066;49.474;11.106;2023-04-26T12:48:41;6.75;;;2.20;;
46355;SDS011;32066;49.474;11.106;2023-04-26T12:51:09;5.97;;;2.60;;
46355;SDS011;32066;49.474;11.106;2023-04-26T12:53:38;7.93;;;2.50;;
46355;SDS011;32066;49.474;11.106;2023-04-26T12:56:07;7.35;;;2.65;;
46355;SDS011;32066;49.474;11.106;2023-04-26T12:58:35;6.40;;;2.70;;
46355;SDS011;32066;49.474;11.106;2023-04-26T13:01:04;6.72;;;2.58;;
46355;SDS011;32066;49.474;11.106;2023-04-26T13:03:38;6.90;;;2.17;;
46355;SDS011;32066;49.474;11.106;2023-04-26T13:06:07;6.20;;;2.15;;
46355;SDS011;32066;49.474;11.106;2023-04-26T13:08:39;7.22;;;2.38;;
46355;SDS011;32066;49.474;11.106;2023-04-26T13:11:08;6.20;;;2.45;;
46355;SDS011;32066;49.474;11.106;2023-04-26T13:13:37;10.18;;;2.70;;
46355;SDS011;32066;49.474;11.106;2023-04-26T13:16:06;6.05;;;2.47;;
46355;SDS011;32066;49.474;11.106;2023-04-26T13:18:38;4.95;;;2.20;;
46355;SDS011;32066;49.474;11.106;2023-04-26T13:21:07;5.22;;;1.98;;
46355;SDS011;32066;49.474;11.106;2023-04-26T13:23:35;4.82;;;1.90;;
46355;SDS011;32066;49.474;11.106;2023-04-26T13:26:04;7.50;;;2.30;;
46355;SDS011;32066;49.474;11.106;2023-04-26T13:28:33;6.82;;;2.40;;
46355;SDS011;32066;49.474;11.106;2023-04-26T13:31:03;7.53;;;2.47;;
46355;SDS011;32066;49.474;11.106;2023-04-26T13:33:32;7.60;;;2.30;;
46355;SDS011;32066;49.474;11.106;2023-04-26T13:36:03;7.27;;;2.27;;
46355;SDS011;32066;49.474;11.106;2023-04-26T13:38:32;5.13;;;1.95;;
46355;SDS011;32066;49.474;11.106;2023-04-26T13:41:01;5.35;;;2.40;;
46355;SDS011;32066;49.474;11.106;2023-04-26T13:43:29;8.77;;;2.53;;
46355;SDS011;32066;49.474;11.106;2023-04-26T13:45:58;4.97;;;2.08;;
46355;SDS011;32066;49.474;11.106;2023-04-26T13:48:27;6.88;;;2.30;;
46355;SDS011;32066;49.474;11.106;2023-04-26T13:50:56;7.25;;;2.67;;
46355;SDS011;32066;49.474;11.106;2023-04-26T13:53:27;5.63;;;2.05;;
46355;SDS011;32066;49.474;11.106;2023-04-26T13:55:56;6.75;;;2.65;;
46355;SDS011;32066;49.474;11.106;2023-04-26T13:58:24;6.63;;;2.28;;
46355;SDS011;32066;49.474;11.106;2023-04-26T14:00:56;6.57;;;2.40;;
46355;SDS011;32066;49.474;11.106;2023-04-26T14:03:25;6.05;;;2.10;;
46355;SDS011;32066;49.474;11.106;2023-04-26T14:05:53;9.63;;;2.30;;
46355;SDS011;32066;49.474;11.106;2023-04-26T14:08:28;6.03;;;2.20;;
46355;SDS011;32066;49.474;11.106;2023-04-26T14:10:57;6.63;;;2.55;;
46355;SDS011;32066;49.474;11.106;2023-04-26T14:13:26;7.70;;;2.38;;
46355;SDS011;32066;49.474;11.106;2023-04-26T14:15:54;7.80;;;2.60;;
46355;SDS011;32066;49.474;11.106;2023-04-26T14:18:23;5.65;;;2.30;;
46355;SDS011;32066;49.474;11.106;2023-04-26T14:20:51;8.87;;;2.33;;
46355;SDS011;32066;49.474;11.106;2023-04-26T14:23:23;6.70;;;2.58;;
46355;SDS011;32066;49.474;11.106;2023-04-26T14:25:54;5.65;;;2.30;;
46355;SDS011;32066;49.474;11.106;2023-04-26T14:28:23;6.53;;;2.38;;
46355;SDS011;32066;49.474;11.106;2023-04-26T14:30:54;7.25;;;2.50;;
46355;SDS011;32066;49.474;11.106;2023-04-26T14:33:26;9.90;;;2.40;;
46355;SDS011;32066;49.474;11.106;2023-04-26T14:35:54;8.43;;;2.20;;
46355;SDS011;32066;49.474;11.106;2023-04-26T14:38:23;6.47;;;2.38;;
46355;SDS011;32066;49.474;11.106;2023-04-26T14:40:54;5.57;;;2.40;;
46355;SDS011;32066;49.474;11.106;2023-04-26T14:43:26;6.43;;;2.38;;
46355;SDS011;32066;49.474;11.106;2023-04-26T14:45:54;6.43;;;2.60;;
46355;SDS011;32066;49.474;11.106;2023-04-26T14:48:23;6.00;;;2.50;;
46355;SDS011;32066;49.474;11.106;2023-04-26T14:50:56;5.57;;;2.08;;
46355;SDS011;32066;49.474;11.106;2023-04-26T14:53:25;6.45;;;2.50;;
46355;SDS011;32066;49.474;11.106;2023-04-26T14:56:01;6.13;;;2.35;;
46355;SDS011;32066;49.474;11.106;2023-04-26T14:58:31;8.30;;;2.50;;
46355;SDS011;32066;49.474;11.106;2023-04-26T15:01:02;5.47;;;2.08;;
46355;SDS011;32066;49.474;11.106;2023-04-26T15:03:31;8.25;;;2.53;;
46355;SDS011;32066;49.474;11.106;2023-04-26T15:06:02;6.82;;;2.28;;
46355;SDS011;32066;49.474;11.106;2023-04-26T15:08:31;6.07;;;2.08;;
46355;SDS011;32066;49.474;11.106;2023-04-26T15:11:05;6.22;;;2.20;;